Time;durP1;ratioP1;P1;durP2;ratioP2;P2;SDS_P1;SDS_P2;PMS_P1;PMS_P2;Temp;Humidity;BMP_temperature;BMP_pressure;BME280_temperature;BME280_humidity;BME280_pressure;Samples;Min_cycle;Max_cycle;Signal;HPM_P1;HPM_P2
2022/03/09 00:00:42;;;;;;;;;;;-1.50;77.20;;;;;;5079133;28;19929;-79
2022/03/09 00:03:10;;;;;;;;;;;-1.50;77.30;;;;;;5071982;28;20025;-78
2022/03/09 00:05:36;;;;;;;;;;;-1.60;77.50;;;;;;5061529;28;19929;-75
2022/03/09 00:08:03;;;;;;;;;;;-1.60;78.10;;;;;;5080466;28;19928;-76
2022/03/09 00:10:30;;;;;;;;;;;-1.60;81.10;;;;;;5069392;28;20299;-76
2022/03/09 00:12:57;;;;;;;;;;;-1.70;82.30;;;;;;5065224;28;19928;-78
2022/03/09 00:15:25;;;;;;;;;;;-1.60;81.80;;;;;;5067498;28;19928;-75
2022/03/09 00:17:52;;;;;;;;;;;-1.60;80.40;;;;;;5069720;28;19925;-77
2022/03/09 00:20:19;;;;;;;;;;;-1.60;80.00;;;;;;5070298;28;19928;-77
2022/03/09 00:22:46;;;;;;;;;;;-1.60;80.60;;;;;;5062303;28;19951;-78
2022/03/09 00:25:12;;;;;;;;;;;-1.60;79.50;;;;;;5076334;28;19925;-77
2022/03/09 00:27:39;;;;;;;;;;;-1.60;79.10;;;;;;5076405;28;19928;-75
2022/03/09 00:30:07;;;;;;;;;;;-1.70;79.60;;;;;;5076825;28;20349;-77
2022/03/09 00:32:37;;;;;;;;;;;-1.70;79.90;;;;;;5070660;28;19928;-78
2022/03/09 00:35:04;;;;;;;;;;;-1.70;78.90;;;;;;5071737;28;19932;-77
2022/03/09 00:37:31;;;;;;;;;;;-1.70;79.00;;;;;;5073653;28;19925;-75
2022/03/09 00:39:58;;;;;;;;;;;-1.60;78.80;;;;;;5077737;28;19977;-78
2022/03/09 00:42:25;;;;;;;;;;;-1.70;78.70;;;;;;5070208;28;19933;-76
2022/03/09 00:44:52;;;;;;;;;;;-1.70;79.00;;;;;;5063528;28;19924;-76
2022/03/09 00:47:18;;;;;;;;;;;-1.80;78.90;;;;;;5074701;28;19931;-77
2022/03/09 00:49:45;;;;;;;;;;;-1.80;78.90;;;;;;5072415;28;20432;-78
2022/03/09 00:52:12;;;;;;;;;;;-1.90;78.40;;;;;;5074108;28;19925;-76
2022/03/09 00:54:39;;;;;;;;;;;-1.90;78.60;;;;;;5073932;28;19951;-75
2022/03/09 00:57:06;;;;;;;;;;;-2.00;78.50;;;;;;5071568;28;20369;-78
2022/03/09 00:59:32;;;;;;;;;;;-2.00;78.40;;;;;;5077076;28;20395;-75
2022/03/09 01:01:59;;;;;;;;;;;-2.00;78.90;;;;;;5069066;28;19946;-75
2022/03/09 01:04:26;;;;;;;;;;;-2.00;79.60;;;;;;5075304;28;19932;-76
2022/03/09 01:06:53;;;;;;;;;;;-2.00;79.80;;;;;;5077395;28;19925;-78
2022/03/09 01:09:20;;;;;;;;;;;-2.00;78.80;;;;;;5069169;28;19990;-76
2022/03/09 01:11:46;;;;;;;;;;;-2.00;78.20;;;;;;5073566;28;19924;-77
2022/03/09 01:14:13;;;;;;;;;;;-2.00;77.90;;;;;;5074217;28;19924;-76
2022/03/09 01:16:42;;;;;;;;;;;-2.00;78.00;;;;;;5079832;28;19928;-75
2022/03/09 01:19:09;;;;;;;;;;;-2.00;77.90;;;;;;5076854;28;20400;-75
2022/03/09 01:21:36;;;;;;;;;;;-2.00;79.30;;;;;;5071615;28;19925;-76
2022/03/09 01:24:03;;;;;;;;;;;-2.10;80.30;;;;;;5073202;28;19932;-76
2022/03/09 01:26:30;;;;;;;;;;;-2.20;80.30;;;;;;5071374;28;19975;-75
2022/03/09 01:28:57;;;;;;;;;;;-2.20;79.80;;;;;;5074027;28;19924;-76
2022/03/09 01:31:23;;;;;;;;;;;-2.30;81.10;;;;;;5074954;28;19929;-77
2022/03/09 01:33:50;;;;;;;;;;;-2.30;80.90;;;;;;5066312;28;20320;-79
2022/03/09 01:36:17;;;;;;;;;;;-2.40;80.80;;;;;;5071358;28;19935;-76
2022/03/09 01:38:47;;;;;;;;;;;-2.30;81.20;;;;;;5074584;28;20328;-76
2022/03/09 01:41:14;;;;;;;;;;;-2.30;81.60;;;;;;5072107;28;19924;-77
2022/03/09 01:43:40;;;;;;;;;;;-2.40;81.70;;;;;;5071482;28;19978;-76
2022/03/09 01:46:07;;;;;;;;;;;-2.40;81.20;;;;;;5072190;28;19925;-75
2022/03/09 01:48:35;;;;;;;;;;;-2.40;80.20;;;;;;5073679;28;19978;-77
2022/03/09 01:51:02;;;;;;;;;;;-2.40;79.60;;;;;;5068595;28;19955;-76
2022/03/09 01:53:29;;;;;;;;;;;-2.50;79.30;;;;;;5069111;28;20163;-79
2022/03/09 01:55:55;;;;;;;;;;;-2.50;80.60;;;;;;5072151;28;19931;-78
2022/03/09 01:58:22;;;;;;;;;;;-2.60;82.90;;;;;;5071472;28;19928;-77
2022/03/09 02:00:49;;;;;;;;;;;-2.50;84.80;;;;;;5069598;28;19943;-79
2022/03/09 02:03:16;;;;;;;;;;;-2.40;84.90;;;;;;5078149;28;20029;-76
2022/03/09 02:05:43;;;;;;;;;;;-2.40;84.10;;;;;;5072556;28;19924;-78
2022/03/09 02:10:58;;;;;;;;;;;-2.50;81.90;;;;;;5076261;28;20514;-75
2022/03/09 02:13:25;;;;;;;;;;;-2.60;81.80;;;;;;5066618;28;19975;-78
2022/03/09 02:15:52;;;;;;;;;;;-2.70;81.70;;;;;;5069043;28;19924;-79
2022/03/09 02:18:18;;;;;;;;;;;-2.70;81.90;;;;;;5068964;28;20401;-75
2022/03/09 02:20:48;;;;;;;;;;;-2.80;81.40;;;;;;5065656;28;19971;-77
2022/03/09 02:23:14;;;;;;;;;;;-2.80;84.10;;;;;;5079312;28;19951;-76
2022/03/09 02:25:41;;;;;;;;;;;-2.80;84.20;;;;;;5065528;28;19968;-79
2022/03/09 02:28:08;;;;;;;;;;;-2.80;83.40;;;;;;5068791;28;20021;-76
2022/03/09 02:30:34;;;;;;;;;;;-2.80;84.00;;;;;;5071552;28;19924;-76
2022/03/09 02:33:04;;;;;;;;;;;-2.70;84.50;;;;;;5072433;28;19929;-76
2022/03/09 02:35:31;;;;;;;;;;;-2.60;86.00;;;;;;5079026;28;19924;-77
2022/03/09 02:37:58;;;;;;;;;;;-2.60;85.60;;;;;;5072419;28;20446;-75
2022/03/09 02:40:25;;;;;;;;;;;-2.50;86.20;;;;;;5071697;28;20031;-75
2022/03/09 02:42:52;;;;;;;;;;;-2.50;85.10;;;;;;5062005;28;20369;-77
2022/03/09 02:45:18;;;;;;;;;;;-2.50;84.50;;;;;;5072493;28;20293;-75
2022/03/09 02:47:45;;;;;;;;;;;-2.40;84.30;;;;;;5072629;28;20399;-76
2022/03/09 02:50:13;;;;;;;;;;;-2.50;83.10;;;;;;5072594;28;19924;-75
2022/03/09 02:52:40;;;;;;;;;;;-2.50;82.60;;;;;;5087066;28;20020;-75
2022/03/09 02:55:08;;;;;;;;;;;-2.50;82.40;;;;;;5066744;28;20308;-79
2022/03/09 02:57:35;;;;;;;;;;;-2.60;83.00;;;;;;5059067;28;20392;-79
2022/03/09 03:00:07;;;;;;;;;;;-2.70;82.60;;;;;;5069232;28;20030;-75
2022/03/09 03:02:35;;;;;;;;;;;-2.70;82.80;;;;;;5079921;28;19932;-75
2022/03/09 03:05:02;;;;;;;;;;;-2.70;82.90;;;;;;5075362;28;21126;-76
2022/03/09 03:07:29;;;;;;;;;;;-2.80;85.00;;;;;;5073826;28;19962;-78
2022/03/09 03:09:56;;;;;;;;;;;-2.80;83.80;;;;;;5073115;28;19925;-77
2022/03/09 03:12:23;;;;;;;;;;;-2.80;83.10;;;;;;5071042;28;19925;-78
2022/03/09 03:14:50;;;;;;;;;;;-2.80;84.00;;;;;;5076719;28;19978;-79
2022/03/09 03:17:16;;;;;;;;;;;-2.80;83.00;;;;;;5084324;28;19928;-76
2022/03/09 03:19:46;;;;;;;;;;;-2.80;83.10;;;;;;5077192;28;19924;-76
2022/03/09 03:22:13;;;;;;;;;;;-2.80;82.70;;;;;;5080127;28;20388;-75
2022/03/09 03:24:40;;;;;;;;;;;-2.90;82.20;;;;;;5075118;28;19968;-77
2022/03/09 03:27:07;;;;;;;;;;;-2.80;82.40;;;;;;5080199;28;19950;-77
2022/03/09 03:29:33;;;;;;;;;;;-2.90;82.60;;;;;;5078660;28;19924;-76
2022/03/09 03:32:00;;;;;;;;;;;-2.90;82.40;;;;;;5074051;28;19936;-79
2022/03/09 03:34:27;;;;;;;;;;;-2.90;82.20;;;;;;5069780;28;19924;-77
2022/03/09 03:36:54;;;;;;;;;;;-2.90;81.70;;;;;;5072398;28;19964;-77
2022/03/09 03:39:20;;;;;;;;;;;-2.90;81.80;;;;;;5077731;28;19954;-76
2022/03/09 03:41:47;;;;;;;;;;;-3.00;81.80;;;;;;5075704;28;19924;-79
2022/03/09 03:44:14;;;;;;;;;;;-3.00;81.80;;;;;;5076370;28;19928;-76
2022/03/09 03:46:41;;;;;;;;;;;-3.00;81.20;;;;;;5080678;28;19929;-77
2022/03/09 03:49:08;;;;;;;;;;;-3.00;81.00;;;;;;5075738;28;19928;-77
2022/03/09 03:51:34;;;;;;;;;;;-3.00;80.80;;;;;;5072064;28;19925;-76
2022/03/09 03:54:01;;;;;;;;;;;-3.00;81.20;;;;;;5078597;28;19929;-77
2022/03/09 03:56:28;;;;;;;;;;;-3.00;81.70;;;;;;5071974;28;19928;-79
2022/03/09 03:58:57;;;;;;;;;;;-3.00;81.30;;;;;;5076237;28;20371;-77
2022/03/09 04:01:25;;;;;;;;;;;-3.00;81.30;;;;;;5077398;28;19950;-76
2022/03/09 04:03:52;;;;;;;;;;;-3.00;82.30;;;;;;5067285;28;19933;-75
2022/03/09 04:06:19;;;;;;;;;;;-3.10;81.40;;;;;;5073415;28;19936;-78
2022/03/09 04:08:46;;;;;;;;;;;-3.00;81.20;;;;;;5072282;28;19968;-76
2022/03/09 04:11:13;;;;;;;;;;;-3.10;80.80;;;;;;5069935;28;19987;-79
2022/03/09 04:13:42;;;;;;;;;;;-3.10;80.80;;;;;;5069659;28;19925;-76
2022/03/09 04:16:09;;;;;;;;;;;-3.00;80.80;;;;;;5067342;28;19956;-76
2022/03/09 04:18:37;;;;;;;;;;;-3.00;80.80;;;;;;5078479;28;20405;-79
2022/03/09 04:21:03;;;;;;;;;;;-3.00;80.80;;;;;;5073827;28;19931;-77
2022/03/09 04:23:30;;;;;;;;;;;-3.10;80.40;;;;;;5073739;28;19955;-76
2022/03/09 04:26:02;;;;;;;;;;;-3.10;80.60;;;;;;5070794;28;19929;-75
2022/03/09 04:28:29;;;;;;;;;;;-3.20;81.90;;;;;;5060620;28;20599;-78
2022/03/09 04:30:56;;;;;;;;;;;-3.20;81.40;;;;;;5076619;28;19932;-76
2022/03/09 04:33:23;;;;;;;;;;;-3.30;81.50;;;;;;5071770;28;19924;-79
2022/03/09 04:35:50;;;;;;;;;;;-3.30;83.10;;;;;;5074281;28;19932;-75
2022/03/09 04:38:16;;;;;;;;;;;-3.30;82.00;;;;;;5075574;28;19928;-80
2022/03/09 04:40:43;;;;;;;;;;;-3.40;80.60;;;;;;5066750;28;19974;-76
2022/03/09 04:43:10;;;;;;;;;;;-3.50;81.30;;;;;;5079743;28;19931;-76
2022/03/09 04:45:37;;;;;;;;;;;-3.60;80.90;;;;;;5074681;28;19967;-76
2022/03/09 04:48:03;;;;;;;;;;;-3.60;81.40;;;;;;5072684;28;20359;-77
2022/03/09 04:50:30;;;;;;;;;;;-3.70;81.70;;;;;;5075818;28;19958;-75
2022/03/09 04:52:57;;;;;;;;;;;-3.70;82.60;;;;;;5074591;28;19978;-76
2022/03/09 04:55:24;;;;;;;;;;;-3.70;81.90;;;;;;5082773;28;19924;-79
2022/03/09 04:57:50;;;;;;;;;;;-3.70;83.80;;;;;;5070911;28;19940;-77
2022/03/09 05:00:18;;;;;;;;;;;-3.70;83.60;;;;;;5078583;28;19928;-75
2022/03/09 05:02:44;;;;;;;;;;;-3.60;83.60;;;;;;5079796;28;19974;-76
2022/03/09 05:05:12;;;;;;;;;;;-3.60;83.10;;;;;;5073409;28;20407;-76
2022/03/09 05:07:40;;;;;;;;;;;-3.60;83.00;;;;;;5072671;28;20361;-75
2022/03/09 05:10:08;;;;;;;;;;;-3.50;83.80;;;;;;5070890;28;19933;-79
2022/03/09 05:12:35;;;;;;;;;;;-3.50;84.30;;;;;;5069606;28;19925;-78
2022/03/09 05:15:03;;;;;;;;;;;-3.60;83.30;;;;;;5075161;28;19928;-76
2022/03/09 05:17:33;;;;;;;;;;;-3.60;82.30;;;;;;5084788;28;20322;-76
2022/03/09 05:19:59;;;;;;;;;;;-3.60;81.70;;;;;;5076845;28;20011;-75
2022/03/09 05:22:26;;;;;;;;;;;-3.60;81.60;;;;;;5079792;28;20383;-79
2022/03/09 05:24:53;;;;;;;;;;;-3.60;82.10;;;;;;5073975;28;20480;-77
2022/03/09 05:27:20;;;;;;;;;;;-3.60;82.50;;;;;;5070789;28;20011;-77
2022/03/09 05:29:47;;;;;;;;;;;-3.70;82.90;;;;;;5076979;28;19973;-76
2022/03/09 05:32:14;;;;;;;;;;;-3.70;86.00;;;;;;5064173;28;20441;-78
2022/03/09 05:34:40;;;;;;;;;;;-3.60;87.00;;;;;;5079794;28;19924;-77
2022/03/09 05:37:07;;;;;;;;;;;-3.60;87.30;;;;;;5073198;28;19928;-77
2022/03/09 05:39:34;;;;;;;;;;;-3.50;88.10;;;;;;5081147;28;20318;-77
2022/03/09 05:42:01;;;;;;;;;;;-3.50;86.80;;;;;;5072394;28;19960;-79
2022/03/09 05:44:28;;;;;;;;;;;-3.40;85.70;;;;;;5076392;28;20285;-78
2022/03/09 05:46:56;;;;;;;;;;;-3.40;85.50;;;;;;5075398;28;19925;-79
2022/03/09 05:49:23;;;;;;;;;;;-3.40;85.00;;;;;;5074947;28;20023;-80
2022/03/09 05:51:52;;;;;;;;;;;-3.40;84.70;;;;;;5069104;28;19978;-77
2022/03/09 05:54:19;;;;;;;;;;;-3.40;84.30;;;;;;5072238;28;19973;-76
2022/03/09 05:56:46;;;;;;;;;;;-3.40;83.80;;;;;;5078902;28;19932;-77
2022/03/09 05:59:13;;;;;;;;;;;-3.50;83.50;;;;;;5069593;28;20347;-80
2022/03/09 06:01:40;;;;;;;;;;;-3.50;83.70;;;;;;5074386;28;19924;-76
2022/03/09 06:04:07;;;;;;;;;;;-3.60;83.90;;;;;;5069773;28;19982;-76
2022/03/09 06:06:33;;;;;;;;;;;-3.60;84.10;;;;;;5073819;28;19947;-76
2022/03/09 06:09:00;;;;;;;;;;;-3.70;84.20;;;;;;5063840;28;20388;-76
2022/03/09 06:11:27;;;;;;;;;;;-3.70;83.80;;;;;;5066503;28;19956;-78
2022/03/09 06:13:54;;;;;;;;;;;-3.70;84.00;;;;;;5070553;28;19924;-80
2022/03/09 06:16:20;;;;;;;;;;;-3.70;83.60;;;;;;5070198;28;19951;-77
2022/03/09 06:18:50;;;;;;;;;;;-3.70;83.30;;;;;;5078317;28;19986;-76
2022/03/09 06:21:17;;;;;;;;;;;-3.70;83.70;;;;;;5076343;28;19929;-76
2022/03/09 06:23:43;;;;;;;;;;;-3.70;84.20;;;;;;5071962;28;19924;-75
2022/03/09 06:26:10;;;;;;;;;;;-3.70;83.50;;;;;;5067831;28;19968;-77
2022/03/09 06:28:37;;;;;;;;;;;-3.70;83.10;;;;;;5071010;28;19925;-79
2022/03/09 06:31:04;;;;;;;;;;;-3.70;83.40;;;;;;5059773;28;19932;-77
2022/03/09 06:33:31;;;;;;;;;;;-3.60;83.90;;;;;;5071033;28;19963;-77
2022/03/09 06:35:58;;;;;;;;;;;-3.60;83.80;;;;;;5071921;28;19971;-79
2022/03/09 06:38:25;;;;;;;;;;;-3.50;84.60;;;;;;5073392;28;19924;-79
2022/03/09 06:40:52;;;;;;;;;;;-3.50;84.60;;;;;;5062826;28;19928;-76
2022/03/09 06:43:18;;;;;;;;;;;-3.50;84.10;;;;;;5070397;28;19978;-75
2022/03/09 06:45:45;;;;;;;;;;;-3.40;84.90;;;;;;5072914;28;20457;-79
2022/03/09 06:48:12;;;;;;;;;;;-3.40;85.60;;;;;;5078518;28;19966;-77
2022/03/09 06:50:39;;;;;;;;;;;-3.40;84.40;;;;;;5081020;28;19924;-78
2022/03/09 06:53:06;;;;;;;;;;;-3.30;84.80;;;;;;5077669;28;20335;-80
2022/03/09 06:55:32;;;;;;;;;;;-3.20;86.10;;;;;;5082347;28;19929;-77
2022/03/09 06:57:59;;;;;;;;;;;-3.20;85.70;;;;;;5071973;28;19972;-79
2022/03/09 07:00:26;;;;;;;;;;;-3.10;86.60;;;;;;5086063;28;19936;-79
2022/03/09 07:02:55;;;;;;;;;;;-3.00;87.90;;;;;;5084391;28;19936;-78
2022/03/09 07:05:22;;;;;;;;;;;-2.90;87.90;;;;;;5066299;28;19928;-76
2022/03/09 07:07:49;;;;;;;;;;;-2.80;85.90;;;;;;5072328;28;19925;-76
2022/03/09 07:10:16;;;;;;;;;;;-2.70;85.70;;;;;;5075505;28;19950;-77
2022/03/09 07:12:44;;;;;;;;;;;-2.60;87.20;;;;;;5074625;28;19955;-80
2022/03/09 07:15:12;;;;;;;;;;;-2.40;88.10;;;;;;5075248;28;19924;-76
2022/03/09 07:17:39;;;;;;;;;;;-2.40;86.00;;;;;;5075805;28;19925;-76
2022/03/09 07:20:06;;;;;;;;;;;-2.30;87.10;;;;;;5072098;28;20389;-78
2022/03/09 07:22:37;;;;;;;;;;;-2.20;87.00;;;;;;5072352;28;20015;-77
2022/03/09 07:25:03;;;;;;;;;;;-2.10;86.20;;;;;;5069336;28;19951;-76
2022/03/09 07:27:30;;;;;;;;;;;-2.00;87.80;;;;;;5071517;28;19928;-77
2022/03/09 07:29:57;;;;;;;;;;;-1.80;86.70;;;;;;5074380;28;19932;-77
2022/03/09 07:32:24;;;;;;;;;;;-1.70;86.70;;;;;;5081728;28;19967;-77
2022/03/09 07:35:11;;;;;;;;;;;-1.60;85.90;;;;;;5070676;28;20384;-79
2022/03/09 07:37:38;;;;;;;;;;;-1.40;86.80;;;;;;5074998;28;19924;-79
2022/03/09 07:40:05;;;;;;;;;;;-1.20;86.70;;;;;;5071691;28;19925;-79
2022/03/09 07:42:32;;;;;;;;;;;-1.10;86.60;;;;;;5087081;28;19950;-79
2022/03/09 07:45:00;;;;;;;;;;;-0.90;86.50;;;;;;5076678;28;19924;-77
2022/03/09 07:47:27;;;;;;;;;;;-0.70;86.40;;;;;;5071470;28;19939;-77
2022/03/09 07:49:54;;;;;;;;;;;-0.60;86.30;;;;;;5083150;28;19951;-79
2022/03/09 07:52:21;;;;;;;;;;;-0.40;86.60;;;;;;5075303;28;19928;-79
2022/03/09 07:54:47;;;;;;;;;;;-0.20;86.00;;;;;;5075328;28;19928;-77
2022/03/09 07:57:14;;;;;;;;;;;0.00;85.10;;;;;;5078508;28;19925;-77
2022/03/09 07:59:41;;;;;;;;;;;0.20;84.50;;;;;;5076895;28;20050;-78
2022/03/09 08:02:08;;;;;;;;;;;0.40;83.80;;;;;;5072116;28;19932;-79
2022/03/09 08:04:35;;;;;;;;;;;0.60;83.30;;;;;;5066580;28;19931;-78
2022/03/09 08:07:02;;;;;;;;;;;0.90;82.00;;;;;;5081203;28;19909;-77
2022/03/09 08:09:29;;;;;;;;;;;1.10;80.70;;;;;;5071797;28;19925;-78
2022/03/09 08:11:55;;;;;;;;;;;1.30;80.70;;;;;;5082535;28;19978;-77
2022/03/09 08:14:22;;;;;;;;;;;1.50;79.40;;;;;;5077043;28;19920;-77
2022/03/09 08:16:50;;;;;;;;;;;1.70;79.30;;;;;;5081469;28;19928;-77
2022/03/09 08:19:17;;;;;;;;;;;2.00;78.10;;;;;;5085041;28;19928;-78
2022/03/09 08:21:43;;;;;;;;;;;2.20;77.30;;;;;;5081461;28;19924;-76
2022/03/09 08:24:10;;;;;;;;;;;2.30;77.10;;;;;;5073351;28;19935;-77
2022/03/09 08:26:37;;;;;;;;;;;2.50;77.50;;;;;;5071170;28;19977;-77
2022/03/09 08:29:04;;;;;;;;;;;2.70;77.90;;;;;;5070753;28;20414;-77
2022/03/09 08:31:31;;;;;;;;;;;2.90;76.80;;;;;;5075412;28;20458;-77
2022/03/09 08:33:58;;;;;;;;;;;3.20;76.20;;;;;;5069353;28;19979;-77
2022/03/09 08:36:25;;;;;;;;;;;3.40;74.80;;;;;;5070563;28;20025;-76
2022/03/09 08:38:53;;;;;;;;;;;3.60;72.90;;;;;;5083227;28;19924;-77
2022/03/09 08:41:21;;;;;;;;;;;3.90;71.00;;;;;;5064249;28;19929;-76
2022/03/09 08:43:48;;;;;;;;;;;4.10;70.10;;;;;;5079720;28;19928;-76
2022/03/09 08:46:16;;;;;;;;;;;4.30;67.40;;;;;;5077847;28;19982;-76
2022/03/09 08:48:45;;;;;;;;;;;4.50;66.30;;;;;;5069811;28;19960;-76
2022/03/09 08:51:13;;;;;;;;;;;4.70;66.00;;;;;;5068271;28;19924;-77
2022/03/09 08:53:40;;;;;;;;;;;4.90;65.40;;;;;;5072728;28;19924;-77
2022/03/09 08:56:07;;;;;;;;;;;5.00;65.40;;;;;;5070425;28;20416;-77
2022/03/09 08:58:35;;;;;;;;;;;5.10;64.00;;;;;;5076746;28;19978;-77
2022/03/09 09:01:02;;;;;;;;;;;5.20;63.80;;;;;;5069353;28;19924;-78
2022/03/09 09:03:29;;;;;;;;;;;5.30;62.40;;;;;;5076633;28;19968;-75
2022/03/09 09:05:56;;;;;;;;;;;5.40;62.90;;;;;;5070046;28;19956;-75
2022/03/09 09:08:23;;;;;;;;;;;5.50;61.60;;;;;;5072731;28;20392;-76
2022/03/09 09:10:50;;;;;;;;;;;5.60;61.80;;;;;;5070469;28;20304;-77
2022/03/09 09:13:17;;;;;;;;;;;5.80;61.50;;;;;;5070305;28;19929;-76
2022/03/09 09:15:44;;;;;;;;;;;5.90;61.00;;;;;;5068176;28;19928;-76
2022/03/09 09:18:11;;;;;;;;;;;6.10;59.60;;;;;;5065899;28;19947;-75
2022/03/09 09:20:47;;;;;;;;;;;6.30;59.50;;;;;;5069879;28;20690;-77
2022/03/09 09:23:14;;;;;;;;;;;6.40;58.90;;;;;;5068782;28;19929;-78
2022/03/09 09:25:43;;;;;;;;;;;6.50;57.70;;;;;;5071250;28;19954;-76
2022/03/09 09:28:10;;;;;;;;;;;6.60;58.20;;;;;;5076262;28;19925;-76
2022/03/09 09:30:36;;;;;;;;;;;6.70;57.00;;;;;;5074756;28;19925;-77
2022/03/09 09:33:03;;;;;;;;;;;6.80;56.70;;;;;;5063003;28;19977;-77
2022/03/09 09:35:30;;;;;;;;;;;7.00;57.20;;;;;;5071531;28;19978;-78
2022/03/09 09:38:09;;;;;;;;;;;7.20;56.30;;;;;;5071212;28;19977;-78
2022/03/09 09:40:44;;;;;;;;;;;7.30;56.40;;;;;;5071744;28;20305;-78
2022/03/09 09:43:12;;;;;;;;;;;7.50;55.50;;;;;;5075268;28;19924;-77
2022/03/09 09:45:39;;;;;;;;;;;7.60;54.90;;;;;;5070615;28;20380;-78
2022/03/09 09:48:07;;;;;;;;;;;7.80;55.20;;;;;;5073956;28;19928;-76
2022/03/09 09:50:34;;;;;;;;;;;7.90;53.30;;;;;;5071627;28;19978;-76
2022/03/09 09:53:05;;;;;;;;;;;8.00;52.40;;;;;;5073319;28;20346;-78
2022/03/09 09:55:32;;;;;;;;;;;8.10;51.60;;;;;;5068651;28;20380;-78
2022/03/09 09:57:59;;;;;;;;;;;8.20;50.50;;;;;;5073157;28;19978;-76
2022/03/09 10:00:26;;;;;;;;;;;8.10;49.70;;;;;;5071607;28;19928;-76
2022/03/09 10:03:00;;;;;;;;;;;8.30;51.80;;;;;;5069144;28;19928;-77
2022/03/09 10:05:27;;;;;;;;;;;8.40;50.50;;;;;;5071157;28;20515;-77
2022/03/09 10:08:04;;;;;;;;;;;8.60;50.60;;;;;;5072173;28;20011;-76
2022/03/09 10:10:41;;;;;;;;;;;8.40;48.40;;;;;;5072059;28;19974;-79
2022/03/09 10:13:19;;;;;;;;;;;8.40;49.10;;;;;;5070019;28;19950;-77
2022/03/09 10:15:47;;;;;;;;;;;8.60;50.00;;;;;;5068804;28;19932;-78
2022/03/09 10:18:17;;;;;;;;;;;8.80;48.60;;;;;;5070256;28;19960;-78
2022/03/09 10:20:47;;;;;;;;;;;8.70;48.20;;;;;;5069207;28;19978;-78
2022/03/09 10:23:15;;;;;;;;;;;8.90;48.70;;;;;;5070873;28;20007;-76
2022/03/09 10:25:42;;;;;;;;;;;9.00;48.20;;;;;;5069251;28;20015;-78
2022/03/09 10:28:19;;;;;;;;;;;9.10;48.10;;;;;;5068395;28;19952;-79
2022/03/09 10:30:46;;;;;;;;;;;9.00;46.70;;;;;;5069755;28;19936;-78
2022/03/09 10:33:13;;;;;;;;;;;9.00;48.40;;;;;;5069665;28;19933;-76
2022/03/09 10:35:44;;;;;;;;;;;9.10;47.20;;;;;;5070048;28;19924;-78
2022/03/09 10:38:14;;;;;;;;;;;9.10;47.80;;;;;;5071470;28;19929;-76
2022/03/09 10:40:42;;;;;;;;;;;9.20;47.80;;;;;;5073189;28;19974;-76
2022/03/09 10:43:23;;;;;;;;;;;9.30;48.90;;;;;;5073789;28;19950;-77
2022/03/09 10:46:08;;;;;;;;;;;9.50;48.80;;;;;;5071883;28;20342;-79
2022/03/09 10:48:54;;;;;;;;;;;9.60;47.40;;;;;;5064848;28;19924;-78
2022/03/09 10:51:27;;;;;;;;;;;9.50;46.50;;;;;;5087413;28;19951;-75
2022/03/09 10:53:54;;;;;;;;;;;9.60;46.40;;;;;;5060285;28;19925;-78
2022/03/09 10:56:21;;;;;;;;;;;9.70;48.10;;;;;;5071632;28;20442;-78
2022/03/09 10:58:48;;;;;;;;;;;9.90;47.00;;;;;;5070396;28;19924;-78
2022/03/09 11:01:18;;;;;;;;;;;10.10;45.20;;;;;;5076024;28;19925;-77
2022/03/09 11:03:46;;;;;;;;;;;9.90;44.50;;;;;;5072153;28;20311;-78
2022/03/09 11:06:14;;;;;;;;;;;10.00;45.00;;;;;;5073962;28;19928;-78
2022/03/09 11:08:44;;;;;;;;;;;10.10;45.10;;;;;;5064870;28;19936;-79
2022/03/09 11:11:14;;;;;;;;;;;10.10;44.70;;;;;;5070349;28;19928;-78
2022/03/09 11:13:41;;;;;;;;;;;10.10;45.00;;;;;;5070727;28;19929;-78
2022/03/09 11:16:08;;;;;;;;;;;10.20;44.90;;;;;;5078358;28;20552;-78
2022/03/09 11:18:36;;;;;;;;;;;10.40;44.30;;;;;;5079525;28;19925;-77
2022/03/09 11:21:04;;;;;;;;;;;10.40;44.30;;;;;;5080751;28;19932;-76
2022/03/09 11:23:33;;;;;;;;;;;10.50;44.30;;;;;;5084673;28;19924;-76
2022/03/09 11:26:07;;;;;;;;;;;10.40;44.20;;;;;;5068094;28;20331;-78
2022/03/09 11:28:35;;;;;;;;;;;10.40;43.90;;;;;;5077666;28;19935;-78
2022/03/09 11:31:06;;;;;;;;;;;10.70;45.30;;;;;;5076803;28;19925;-76
2022/03/09 11:33:45;;;;;;;;;;;10.90;43.80;;;;;;5077902;28;20376;-78
2022/03/09 11:36:21;;;;;;;;;;;11.10;43.50;;;;;;5077846;28;19924;-78
2022/03/09 11:38:49;;;;;;;;;;;11.30;43.80;;;;;;5080998;28;20002;-78
2022/03/09 11:41:17;;;;;;;;;;;11.70;42.90;;;;;;5073730;28;19928;-78
2022/03/09 11:43:43;;;;;;;;;;;11.90;42.60;;;;;;5056097;28;19987;-76
2022/03/09 11:46:11;;;;;;;;;;;11.80;41.50;;;;;;5069713;28;19978;-78
2022/03/09 11:48:57;;;;;;;;;;;11.90;41.80;;;;;;5073656;28;19925;-76
2022/03/09 11:51:28;;;;;;;;;;;11.90;42.30;;;;;;5074632;28;19935;-77
2022/03/09 11:53:59;;;;;;;;;;;12.20;43.80;;;;;;5077257;28;19931;-78
2022/03/09 11:56:35;;;;;;;;;;;12.20;42.10;;;;;;5074384;28;19951;-77
2022/03/09 11:59:12;;;;;;;;;;;12.30;40.20;;;;;;5062681;28;19935;-78
2022/03/09 12:02:08;;;;;;;;;;;12.30;39.60;;;;;;5065553;28;19947;-75
2022/03/09 12:04:50;;;;;;;;;;;12.40;40.40;;;;;;5071609;28;19929;-76
2022/03/09 12:07:35;;;;;;;;;;;12.50;40.50;;;;;;5077406;28;20284;-78
2022/03/09 12:10:06;;;;;;;;;;;12.50;39.10;;;;;;5077379;28;19924;-78
2022/03/09 12:12:34;;;;;;;;;;;12.70;40.30;;;;;;5079007;28;19928;-78
2022/03/09 12:15:05;;;;;;;;;;;12.80;39.90;;;;;;5078371;28;20306;-78
2022/03/09 12:17:34;;;;;;;;;;;12.70;39.30;;;;;;5082319;28;19928;-76
2022/03/09 12:20:23;;;;;;;;;;;12.80;39.80;;;;;;5071415;28;19924;-78
2022/03/09 12:23:01;;;;;;;;;;;12.80;39.10;;;;;;5074433;28;19981;-78
2022/03/09 12:25:48;;;;;;;;;;;12.90;38.60;;;;;;5073955;28;19929;-78
2022/03/09 12:28:28;;;;;;;;;;;12.80;39.40;;;;;;5068808;28;20380;-78
2022/03/09 12:30:59;;;;;;;;;;;13.00;38.50;;;;;;5071152;28;19935;-79
2022/03/09 12:33:30;;;;;;;;;;;13.00;37.50;;;;;;5071735;28;19929;-77
2022/03/09 12:36:03;;;;;;;;;;;13.10;38.50;;;;;;5072405;28;19932;-77
2022/03/09 12:38:54;;;;;;;;;;;13.00;37.90;;;;;;5062112;28;20514;-78
2022/03/09 12:41:31;;;;;;;;;;;13.00;38.80;;;;;;5073717;28;19928;-79
2022/03/09 12:44:02;;;;;;;;;;;13.10;38.50;;;;;;5074030;28;19928;-78
2022/03/09 12:46:30;;;;;;;;;;;13.20;39.00;;;;;;5071195;28;19928;-77
2022/03/09 12:49:08;;;;;;;;;;;13.40;38.70;;;;;;5066284;28;19925;-78
2022/03/09 12:51:37;;;;;;;;;;;13.70;38.40;;;;;;5069975;28;19955;-78
2022/03/09 12:54:34;;;;;;;;;;;13.70;37.80;;;;;;5067458;28;19924;-78
2022/03/09 12:57:05;;;;;;;;;;;13.90;38.00;;;;;;5067835;28;19935;-78
2022/03/09 12:59:35;;;;;;;;;;;14.10;36.80;;;;;;5071888;28;19988;-78
2022/03/09 13:02:02;;;;;;;;;;;14.20;36.40;;;;;;5069834;28;19931;-78
2022/03/09 13:04:29;;;;;;;;;;;14.10;35.70;;;;;;5062775;28;19986;-77
2022/03/09 13:07:07;;;;;;;;;;;13.80;36.20;;;;;;5075006;28;19924;-77
2022/03/09 13:09:35;;;;;;;;;;;14.00;37.20;;;;;;5067722;28;20388;-77
2022/03/09 13:12:09;;;;;;;;;;;14.00;36.50;;;;;;5060332;28;19925;-78
2022/03/09 13:14:37;;;;;;;;;;;13.70;36.00;;;;;;5065929;28;20392;-77
2022/03/09 13:17:04;;;;;;;;;;;13.80;36.30;;;;;;5057782;28;19932;-76
2022/03/09 13:19:35;;;;;;;;;;;14.00;36.40;;;;;;5059543;28;19928;-76
2022/03/09 13:22:02;;;;;;;;;;;14.30;36.70;;;;;;5074072;28;19946;-75
2022/03/09 13:24:29;;;;;;;;;;;14.30;35.70;;;;;;5068742;28;19928;-77
2022/03/09 13:26:56;;;;;;;;;;;14.20;36.50;;;;;;5068403;28;19932;-76
2022/03/09 13:29:24;;;;;;;;;;;14.60;37.10;;;;;;5059842;28;19932;-77
2022/03/09 13:31:57;;;;;;;;;;;14.60;35.80;;;;;;5060743;28;19925;-79
2022/03/09 13:34:29;;;;;;;;;;;14.40;34.50;;;;;;5059306;28;19928;-79
2022/03/09 13:37:10;;;;;;;;;;;14.00;34.80;;;;;;5059489;28;20274;-77
2022/03/09 13:39:39;;;;;;;;;;;13.90;35.80;;;;;;5070431;28;20407;-79
2022/03/09 13:42:07;;;;;;;;;;;14.00;35.80;;;;;;5067007;28;19928;-76
2022/03/09 13:44:34;;;;;;;;;;;14.20;35.90;;;;;;5060750;28;20418;-76
2022/03/09 13:47:11;;;;;;;;;;;14.40;35.50;;;;;;5064551;28;19935;-78
2022/03/09 13:49:42;;;;;;;;;;;14.30;35.60;;;;;;5057046;28;19924;-79
2022/03/09 13:52:19;;;;;;;;;;;14.30;35.30;;;;;;5056823;28;19929;-79
2022/03/09 13:54:46;;;;;;;;;;;14.50;35.70;;;;;;5066992;28;19928;-79
2022/03/09 13:57:13;;;;;;;;;;;14.80;35.20;;;;;;5062629;28;19928;-77
2022/03/09 13:59:41;;;;;;;;;;;14.80;34.90;;;;;;5060804;28;19928;-77
2022/03/09 14:02:17;;;;;;;;;;;14.80;34.60;;;;;;5059936;28;19924;-80
2022/03/09 14:04:45;;;;;;;;;;;14.90;34.20;;;;;;5059633;28;19932;-77
2022/03/09 14:07:12;;;;;;;;;;;15.10;34.00;;;;;;5066654;28;19977;-76
2022/03/09 14:09:39;;;;;;;;;;;14.90;33.30;;;;;;5062816;28;20282;-78
2022/03/09 14:12:13;;;;;;;;;;;14.80;34.00;;;;;;5057683;28;20359;-79
2022/03/09 14:14:39;;;;;;;;;;;14.60;34.00;;;;;;5057716;28;19924;-75
2022/03/09 14:17:06;;;;;;;;;;;14.30;34.00;;;;;;5056287;28;19925;-79
2022/03/09 14:19:33;;;;;;;;;;;14.20;34.90;;;;;;5061613;28;20026;-79
2022/03/09 14:22:00;;;;;;;;;;;14.50;35.20;;;;;;5058080;28;20553;-76
2022/03/09 14:24:29;;;;;;;;;;;14.30;34.30;;;;;;5061192;28;19929;-78
2022/03/09 14:26:56;;;;;;;;;;;14.50;35.10;;;;;;5064310;28;19960;-77
2022/03/09 14:29:23;;;;;;;;;;;14.60;34.70;;;;;;5056665;28;20019;-79